Details From MRLB - Daniel Oduber Quiros Intl
To MROC - San Jose Juan Santamaria Intl
Flight Number -
Tags generated
Created
Modified
Stats Distance 87 nm / 161 km
Max Altitude 8,800 ft / 2,682 m
Waypoints 3
Social Downloads 0
Likes 0
Share VATSIM

Download

Looking for another format? Having issues loading an existing format? Contact us
Advertisement - Login to hide

Notes

Basic altitude profile: - Ascent Rate: 2500ft/min - Ascent Speed: 250kts - Cruise Altitude: 35000ft - Cruise Speed: 420kts - Descent Rate: 1500ft/min - Descent Speed: 250kts Options: - Use NATs: yes - Use PACOTS: yes - Use low airways: yes - Use high airways: yes

Route

MRLB CANAS MROC

ID Type Via Altitude Latitude Longitude Leg Dist Tot Dist Heading (true) Name
O MRLB APT - 0 ft / 0 m 10.59329˚ -85.54441˚ - 0 nm - Daniel Oduber Quiros Intl
CANAS FIX - 8,800 ft / 2,682 m 10.27000˚ -84.84833˚ 45 nm 45 nm 115° / 115° -
O MROC APT - 0 ft / 0 m 9.99393˚ -84.20888˚ 41 nm 86 nm 114° / 114° San Jose Juan Santamaria Intl

Altitude Profile

Advertisement - Login to hide

MRLB

Details ICAO MRLB (LIR)
Name Daniel Oduber Quiros Intl
Region Costa Rica
Timezone America/Costa_Rica (UTC-6.0)
Stats Elevation 270 ft / 82 m (AMSL)
Location 10.593289° -85.544410°
Runways 1
Magnetic Variation 1.040° W

METAR

MRLB 121600Z 28004KT CAVOK 28/18 A2995 NOSIG

Decode

TAF

TAF AMD MRLB 121200Z 1212/1312 07010KT 9999 FEW045 TX31/1219Z TN21/1212Z

Decode

Departure Runways

ID Width Length Bearing (true) Bearing (mag) Surface Threshold Offset Overrun Length
07 148 ft / 45 m 9,068 ft / 2,764 m 70.05° 71.09° Asphalt 0 ft / 0 m 0 ft / 0 m
25 148 ft / 45 m 9,068 ft / 2,764 m 250.05° 251.09° Asphalt 0 ft / 0 m 0 ft / 0 m

MROC

Details ICAO MROC (SJO)
Name San Jose Juan Santamaria Intl
Region Costa Rica
Timezone America/Costa_Rica (UTC-6.0)
Stats Elevation 3,021 ft / 921 m (AMSL)
Location 9.993927° -84.208884°
Runways 1
Magnetic Variation 1.718° W

METAR

MROC 121600Z 06009KT 030V090 9999 FEW030 OVC120 20/14 A3011 NOSIG

Decode

TAF

Not found

Destination Runways

ID Width Length Bearing (true) Bearing (mag) Surface Threshold Offset Overrun Length
07 151 ft / 46 m 9,994 ft / 3,046 m 68.91° 70.63° Asphalt 0 ft / 0 m 200 ft / 61 m
25 151 ft / 46 m 9,994 ft / 3,046 m 248.92° 250.64° Asphalt 1,969 ft / 600 m 200 ft / 61 m

Approach Navaids

Runway Type Ident Frequency Range Bearing (true) Bearing (mag) Slope Elevation
07 Localiser IOCO 109.50 MHz 18 nm / 33 km 68.89° 70.61° - 930 ft / 283 m (AMSL)
07 Glidescope IOCO 109.50 MHz 10 nm / 19 km 68.91° 70.63° 3.00° 930 ft / 283 m (AMSL)
07 DME IOCO 109.50 MHz 18 nm / 33 km - - - 930 ft / 283 m (AMSL)

Popular Alternatives